createdAt,value
2017-04-30T00:00:07.430Z,0
2017-04-30T00:01:07.469Z,0
2017-04-30T00:02:07.488Z,0
2017-04-30T00:03:07.410Z,0
2017-04-30T00:04:07.499Z,0
2017-04-30T00:05:07.502Z,0
2017-04-30T00:06:07.531Z,0
2017-04-30T00:07:07.459Z,0
2017-04-30T00:08:07.532Z,0
2017-04-30T00:09:07.557Z,0
2017-04-30T00:10:07.496Z,0
2017-04-30T00:11:07.515Z,0
2017-04-30T00:12:07.519Z,0
2017-04-30T00:13:07.513Z,0
2017-04-30T00:14:07.472Z,0
2017-04-30T00:15:07.549Z,0
2017-04-30T00:16:07.512Z,0
2017-04-30T00:17:07.479Z,0
2017-04-30T00:18:07.532Z,0
2017-04-30T00:19:07.545Z,0
2017-04-30T00:20:07.504Z,0
2017-04-30T00:21:07.456Z,0
2017-04-30T00:22:07.533Z,0
2017-04-30T00:23:07.497Z,0
2017-04-30T00:24:07.498Z,0
2017-04-30T00:25:07.482Z,0
2017-04-30T00:26:07.484Z,0
2017-04-30T00:27:07.496Z,0
2017-04-30T00:28:07.469Z,0
2017-04-30T00:29:07.475Z,0
2017-04-30T00:30:07.454Z,0
2017-04-30T00:31:07.479Z,0
2017-04-30T00:32:07.488Z,0
2017-04-30T00:33:07.488Z,0
2017-04-30T00:34:07.546Z,0
2017-04-30T00:35:07.542Z,0
2017-04-30T00:36:07.535Z,0
2017-04-30T00:37:07.525Z,0
2017-04-30T00:38:07.527Z,0
2017-04-30T00:39:07.506Z,0
2017-04-30T00:40:07.534Z,0
2017-04-30T00:41:07.552Z,0
2017-04-30T00:42:07.555Z,0
2017-04-30T00:43:07.565Z,0
2017-04-30T00:44:07.522Z,0
2017-04-30T00:45:07.454Z,0
2017-04-30T00:46:07.520Z,0
2017-04-30T00:47:07.458Z,0
2017-04-30T00:48:07.482Z,0
2017-04-30T00:49:07.540Z,0
2017-04-30T00:50:07.491Z,0
2017-04-30T00:51:07.535Z,0
2017-04-30T00:52:07.502Z,0
2017-04-30T00:53:07.506Z,0
2017-04-30T00:54:07.518Z,0
2017-04-30T00:55:07.564Z,0
2017-04-30T00:56:07.563Z,0
2017-04-30T00:57:07.494Z,0
2017-04-30T00:58:07.511Z,0
2017-04-30T00:59:07.506Z,0
2017-04-30T01:00:07.505Z,0
2017-04-30T01:01:07.514Z,0
2017-04-30T01:02:07.533Z,0
2017-04-30T01:03:07.522Z,0
2017-04-30T01:04:07.505Z,0
2017-04-30T01:05:07.556Z,0
2017-04-30T01:06:07.499Z,0
2017-04-30T01:07:07.553Z,0
2017-04-30T01:08:07.561Z,0
2017-04-30T01:09:07.577Z,0
2017-04-30T01:10:07.564Z,0
2017-04-30T01:11:07.572Z,0
2017-04-30T01:12:07.537Z,0
2017-04-30T01:13:07.553Z,0
2017-04-30T01:14:07.561Z,0
2017-04-30T01:15:07.534Z,0
2017-04-30T01:16:07.502Z,0
2017-04-30T01:17:07.565Z,0
2017-04-30T01:18:07.533Z,0
2017-04-30T01:19:07.588Z,0
2017-04-30T01:20:07.553Z,0
2017-04-30T01:21:07.509Z,0
2017-04-30T01:22:07.591Z,0
2017-04-30T01:23:07.547Z,0
2017-04-30T01:24:07.502Z,0
2017-04-30T01:25:07.467Z,0
2017-04-30T01:26:07.518Z,0
2017-04-30T01:27:07.448Z,0
2017-04-30T01:28:07.532Z,0
2017-04-30T01:29:07.474Z,0
2017-04-30T01:30:07.528Z,0
2017-04-30T01:31:07.507Z,0
2017-04-30T01:32:07.543Z,0
2017-04-30T01:33:07.490Z,0
2017-04-30T01:34:07.476Z,0
2017-04-30T01:35:07.490Z,0
2017-04-30T01:36:07.511Z,0
2017-04-30T01:37:07.533Z,0
2017-04-30T01:38:07.544Z,0
2017-04-30T01:39:07.541Z,0
2017-04-30T01:40:07.572Z,0
2017-04-30T01:41:07.470Z,0
2017-04-30T01:42:07.566Z,0
2017-04-30T01:43:07.560Z,0
2017-04-30T01:44:07.577Z,0
2017-04-30T01:45:07.513Z,0
2017-04-30T01:46:07.552Z,0
2017-04-30T01:47:07.606Z,0
2017-04-30T01:48:07.558Z,0
2017-04-30T01:49:07.600Z,0
2017-04-30T01:50:07.552Z,0
2017-04-30T01:51:07.603Z,0
2017-04-30T01:52:07.548Z,0
2017-04-30T01:53:07.594Z,0
2017-04-30T01:54:07.574Z,0
2017-04-30T01:55:07.496Z,0
2017-04-30T01:56:07.523Z,0
2017-04-30T01:57:07.531Z,0
2017-04-30T01:58:07.545Z,0
2017-04-30T01:59:07.569Z,0
2017-04-30T02:00:07.579Z,0
2017-04-30T02:01:07.598Z,0
2017-04-30T02:02:07.516Z,0
2017-04-30T02:03:07.500Z,0
2017-04-30T02:04:07.546Z,0
2017-04-30T02:05:07.503Z,0
2017-04-30T02:06:07.564Z,0
2017-04-30T02:07:07.518Z,0
2017-04-30T02:08:07.598Z,0
2017-04-30T02:09:07.553Z,0
2017-04-30T02:10:07.508Z,0
2017-04-30T02:11:07.580Z,0
2017-04-30T02:12:07.527Z,0
2017-04-30T02:13:07.567Z,0
2017-04-30T02:14:07.604Z,0
2017-04-30T02:15:07.593Z,0
2017-04-30T02:16:07.567Z,0
2017-04-30T02:17:07.533Z,0
2017-04-30T02:18:07.623Z,0
2017-04-30T02:19:07.593Z,0
2017-04-30T02:20:07.557Z,0
2017-04-30T02:21:07.531Z,0
2017-04-30T02:22:07.624Z,0
2017-04-30T02:23:07.598Z,0
2017-04-30T02:24:07.583Z,0
2017-04-30T02:25:07.509Z,0
2017-04-30T02:26:07.550Z,0
2017-04-30T02:27:07.579Z,0
2017-04-30T02:28:07.520Z,0
2017-04-30T02:29:07.577Z,0
2017-04-30T02:30:07.554Z,0
2017-04-30T02:31:07.520Z,0
2017-04-30T02:32:07.498Z,0
2017-04-30T02:33:07.587Z,0
2017-04-30T02:34:07.571Z,0
2017-04-30T02:35:07.621Z,0
2017-04-30T02:36:07.576Z,0
2017-04-30T02:37:07.611Z,0
2017-04-30T02:38:07.546Z,0
2017-04-30T02:39:07.587Z,0
2017-04-30T02:40:07.610Z,0
2017-04-30T02:41:07.539Z,0
2017-04-30T02:42:07.599Z,0
2017-04-30T02:43:07.542Z,0
2017-04-30T02:44:07.530Z,0
2017-04-30T02:45:07.560Z,0
2017-04-30T02:46:07.575Z,0
2017-04-30T02:47:07.595Z,0
2017-04-30T02:48:07.514Z,0
2017-04-30T02:49:07.530Z,0
2017-04-30T02:50:07.520Z,0
2017-04-30T02:51:07.536Z,0
2017-04-30T02:52:07.560Z,0
2017-04-30T02:53:07.563Z,0
2017-04-30T02:54:07.595Z,0
2017-04-30T02:55:07.626Z,0
2017-04-30T02:56:07.569Z,0
2017-04-30T02:57:07.569Z,0
2017-04-30T02:58:07.564Z,0
2017-04-30T02:59:07.564Z,0
2017-04-30T03:00:07.568Z,0
2017-04-30T03:01:07.543Z,0
2017-04-30T03:02:07.542Z,0
2017-04-30T03:03:07.526Z,0
2017-04-30T03:04:07.596Z,0
2017-04-30T03:05:07.631Z,0
2017-04-30T03:06:07.648Z,0
2017-04-30T03:07:07.573Z,0
2017-04-30T03:08:07.577Z,0
2017-04-30T03:09:07.567Z,0
2017-04-30T03:10:07.596Z,0
2017-04-30T03:11:07.636Z,0
2017-04-30T03:12:07.586Z,0
2017-04-30T03:13:07.629Z,0
2017-04-30T03:14:07.551Z,0
2017-04-30T03:15:07.642Z,0
2017-04-30T03:16:07.599Z,0
2017-04-30T03:17:07.606Z,0
2017-04-30T03:18:07.603Z,0
2017-04-30T03:19:07.586Z,0
2017-04-30T03:20:07.560Z,0
2017-04-30T03:21:07.554Z,0
2017-04-30T03:22:07.656Z,0
2017-04-30T03:23:07.552Z,0
2017-04-30T03:24:07.575Z,0
2017-04-30T03:25:07.546Z,0
2017-04-30T03:26:07.619Z,0
2017-04-30T03:27:07.633Z,0
2017-04-30T03:28:07.552Z,0
2017-04-30T03:29:07.593Z,0
2017-04-30T03:30:07.559Z,0
2017-04-30T03:31:07.536Z,0
2017-04-30T03:32:07.589Z,0
2017-04-30T03:33:07.552Z,0
2017-04-30T03:34:07.537Z,0
2017-04-30T03:35:07.527Z,0
2017-04-30T03:36:07.599Z,0
2017-04-30T03:37:07.596Z,0
2017-04-30T03:38:07.584Z,5
2017-04-30T03:39:07.583Z,5
2017-04-30T03:40:07.604Z,5
2017-04-30T03:41:07.597Z,5
2017-04-30T03:42:07.602Z,5
2017-04-30T03:43:07.599Z,5
2017-04-30T03:44:07.606Z,11
2017-04-30T03:45:07.599Z,11
2017-04-30T03:46:07.518Z,11
2017-04-30T03:47:07.512Z,16
2017-04-30T03:48:07.536Z,16
2017-04-30T03:49:07.559Z,16
2017-04-30T03:50:07.552Z,22
2017-04-30T03:51:07.567Z,22
2017-04-30T03:52:07.553Z,22
2017-04-30T03:53:07.542Z,28
2017-04-30T03:54:07.570Z,28
2017-04-30T03:55:07.575Z,33
2017-04-30T03:56:07.583Z,33
2017-04-30T03:57:07.603Z,39
2017-04-30T03:58:07.615Z,39
2017-04-30T03:59:07.622Z,45
2017-04-30T04:00:07.615Z,50
2017-04-30T04:01:07.627Z,50
2017-04-30T04:02:07.631Z,56
2017-04-30T04:03:07.604Z,61
2017-04-30T04:04:07.590Z,61
2017-04-30T04:05:07.642Z,67
2017-04-30T04:06:07.674Z,73
2017-04-30T04:07:07.655Z,78
2017-04-30T04:08:07.656Z,78
2017-04-30T04:09:07.629Z,84
2017-04-30T04:10:07.567Z,90
2017-04-30T04:11:07.625Z,95
2017-04-30T04:12:07.609Z,101
2017-04-30T04:13:07.619Z,106
2017-04-30T04:14:07.645Z,112
2017-04-30T04:15:07.662Z,112
2017-04-30T04:16:07.582Z,118
2017-04-30T04:17:07.606Z,123
2017-04-30T04:18:07.627Z,129
2017-04-30T04:19:07.613Z,135
2017-04-30T04:20:07.586Z,140
2017-04-30T04:21:07.701Z,146
2017-04-30T04:22:07.619Z,151
2017-04-30T04:23:07.611Z,157
2017-04-30T04:24:07.605Z,163
2017-04-30T04:25:07.596Z,168
2017-04-30T04:26:07.647Z,174
2017-04-30T04:27:07.588Z,180
2017-04-30T04:28:07.678Z,185
2017-04-30T04:29:07.645Z,191
2017-04-30T04:30:07.578Z,196
2017-04-30T04:31:07.668Z,202
2017-04-30T04:32:07.654Z,208
2017-04-30T04:33:07.623Z,213
2017-04-30T04:34:07.686Z,219
2017-04-30T04:35:07.662Z,225
2017-04-30T04:36:07.581Z,230
2017-04-30T04:37:07.669Z,236
2017-04-30T04:38:07.639Z,241
2017-04-30T04:39:07.620Z,247
2017-04-30T04:40:07.618Z,253
2017-04-30T04:41:07.605Z,258
2017-04-30T04:42:07.575Z,264
2017-04-30T04:43:07.682Z,270
2017-04-30T04:44:07.683Z,275
2017-04-30T04:45:07.575Z,281
2017-04-30T04:46:07.617Z,286
2017-04-30T04:47:07.638Z,292
2017-04-30T04:48:07.583Z,298
2017-04-30T04:49:07.618Z,303
2017-04-30T04:50:07.636Z,309
2017-04-30T04:51:07.674Z,315
2017-04-30T04:52:07.595Z,320
2017-04-30T04:53:07.601Z,326
2017-04-30T04:54:07.633Z,331
2017-04-30T04:55:07.592Z,337
2017-04-30T04:56:07.658Z,343
2017-04-30T04:57:07.607Z,348
2017-04-30T04:58:07.679Z,354
2017-04-30T04:59:07.659Z,360
2017-04-30T05:00:07.604Z,365
2017-04-30T05:01:07.675Z,371
2017-04-30T05:02:07.621Z,376
2017-04-30T05:03:07.696Z,382
2017-04-30T05:04:07.624Z,388
2017-04-30T05:05:07.588Z,393
2017-04-30T05:06:07.608Z,399
2017-04-30T05:07:07.636Z,405
2017-04-30T05:08:07.570Z,410
2017-04-30T05:09:07.575Z,416
2017-04-30T05:10:07.615Z,421
2017-04-30T05:11:07.661Z,421
2017-04-30T05:12:07.604Z,427
2017-04-30T05:13:07.566Z,433
2017-04-30T05:14:07.629Z,444
2017-04-30T05:15:07.624Z,444
2017-04-30T05:16:07.704Z,450
2017-04-30T05:17:07.675Z,455
2017-04-30T05:18:07.664Z,466
2017-04-30T05:19:07.637Z,466
2017-04-30T05:20:07.614Z,472
2017-04-30T05:21:07.691Z,478
2017-04-30T05:22:07.663Z,483
2017-04-30T05:23:07.655Z,489
2017-04-30T05:24:07.620Z,495
2017-04-30T05:25:07.663Z,500
2017-04-30T05:26:07.650Z,506
2017-04-30T05:27:07.571Z,511
2017-04-30T05:28:07.649Z,523
2017-04-30T05:29:07.640Z,528
2017-04-30T05:30:07.609Z,534
2017-04-30T05:31:07.631Z,534
2017-04-30T05:32:07.599Z,540
2017-04-30T05:33:07.650Z,545
2017-04-30T05:34:07.612Z,551
2017-04-30T05:35:07.635Z,556
2017-04-30T05:36:07.661Z,562
2017-04-30T05:37:07.614Z,568
2017-04-30T05:38:07.704Z,573
2017-04-30T05:39:07.674Z,579
2017-04-30T05:40:07.629Z,585
2017-04-30T05:41:07.679Z,596
2017-04-30T05:42:07.712Z,601
2017-04-30T05:43:07.681Z,753
2017-04-30T05:44:07.706Z,1035
2017-04-30T05:45:07.658Z,1125
2017-04-30T05:46:07.620Z,1147
2017-04-30T05:47:07.691Z,1181
2017-04-30T05:48:07.629Z,1203
2017-04-30T05:49:07.657Z,1265
2017-04-30T05:50:07.672Z,1321
2017-04-30T05:51:07.630Z,1445
2017-04-30T05:52:07.631Z,1355
2017-04-30T05:53:07.598Z,1203
2017-04-30T05:54:07.668Z,1451
2017-04-30T05:55:07.699Z,1327
2017-04-30T05:56:07.638Z,1361
2017-04-30T05:57:07.622Z,1400
2017-04-30T05:58:07.699Z,1434
2017-04-30T05:59:07.642Z,1456
2017-04-30T06:00:07.675Z,1485
2017-04-30T06:01:07.646Z,1496
2017-04-30T06:02:07.717Z,1490
2017-04-30T06:03:07.696Z,1490
2017-04-30T06:04:07.640Z,1485
2017-04-30T06:05:07.720Z,1479
2017-04-30T06:06:07.704Z,1451
2017-04-30T06:07:07.693Z,1440
2017-04-30T06:08:07.637Z,1428
2017-04-30T06:09:07.680Z,1417
2017-04-30T06:10:07.690Z,1423
2017-04-30T06:11:07.694Z,1428
2017-04-30T06:12:07.702Z,1434
2017-04-30T06:13:07.732Z,1456
2017-04-30T06:14:07.635Z,1462
2017-04-30T06:15:07.654Z,1462
2017-04-30T06:16:07.654Z,1479
2017-04-30T06:17:07.683Z,1496
2017-04-30T06:18:07.707Z,1507
2017-04-30T06:19:07.693Z,1569
2017-04-30T06:20:07.708Z,1620
2017-04-30T06:21:07.673Z,1665
2017-04-30T06:22:07.632Z,1698
2017-04-30T06:23:07.667Z,1755
2017-04-30T06:24:07.679Z,1805
2017-04-30T06:25:07.720Z,1856
2017-04-30T06:26:07.731Z,2008
2017-04-30T06:27:07.648Z,2137
2017-04-30T06:28:07.685Z,2295
2017-04-30T06:29:07.732Z,2576
2017-04-30T06:30:07.651Z,3296
2017-04-30T06:31:07.678Z,4387
2017-04-30T06:32:07.735Z,5529
2017-04-30T06:33:07.731Z,4663
2017-04-30T06:34:07.649Z,2553
2017-04-30T06:35:07.714Z,1822
2017-04-30T06:36:07.659Z,1496
2017-04-30T06:37:07.730Z,1451
2017-04-30T06:38:07.677Z,1417
2017-04-30T06:39:07.694Z,1395
2017-04-30T06:40:07.625Z,1400
2017-04-30T06:41:07.672Z,1389
2017-04-30T06:42:07.626Z,1395
2017-04-30T06:43:07.689Z,1423
2017-04-30T06:44:07.703Z,1456
2017-04-30T06:45:07.658Z,1434
2017-04-30T06:46:07.657Z,1406
2017-04-30T06:47:07.613Z,1473
2017-04-30T06:48:07.621Z,1485
2017-04-30T06:49:07.612Z,2120
2017-04-30T06:50:07.690Z,2131
2017-04-30T06:51:07.652Z,2126
2017-04-30T06:52:07.669Z,2171
2017-04-30T06:53:07.638Z,2154
2017-04-30T06:54:07.608Z,2199
2017-04-30T06:55:07.667Z,2205
2017-04-30T06:56:07.676Z,2227
2017-04-30T06:57:07.675Z,2205
2017-04-30T06:58:07.678Z,2272
2017-04-30T06:59:07.693Z,2351
2017-04-30T07:00:07.672Z,2334
2017-04-30T07:01:07.746Z,1861
2017-04-30T07:02:07.661Z,2351
2017-04-30T07:03:07.669Z,2300
2017-04-30T07:04:07.668Z,2255
2017-04-30T07:05:07.659Z,2385
2017-04-30T07:06:07.687Z,2126
2017-04-30T07:07:07.715Z,2345
2017-04-30T07:08:07.729Z,2514
2017-04-30T07:09:07.677Z,2452
2017-04-30T07:10:07.675Z,2317
2017-04-30T07:11:07.694Z,2491
2017-04-30T07:12:07.738Z,2531
2017-04-30T07:13:07.679Z,2503
2017-04-30T07:14:07.653Z,2475
2017-04-30T07:15:07.676Z,2418
2017-04-30T07:16:07.722Z,2441
2017-04-30T07:17:07.729Z,2401
2017-04-30T07:18:07.664Z,2362
2017-04-30T07:19:07.701Z,2317
2017-04-30T07:20:07.658Z,2272
2017-04-30T07:21:07.719Z,2317
2017-04-30T07:22:07.756Z,2334
2017-04-30T07:23:07.666Z,2328
2017-04-30T07:24:07.725Z,2435
2017-04-30T07:25:07.742Z,2525
2017-04-30T07:26:07.742Z,2581
2017-04-30T07:27:07.665Z,2660
2017-04-30T07:28:07.663Z,2728
2017-04-30T07:29:07.755Z,2745
2017-04-30T07:30:07.727Z,2790
2017-04-30T07:31:07.743Z,2874
2017-04-30T07:32:07.701Z,2919
2017-04-30T07:33:07.689Z,2925
2017-04-30T07:34:07.756Z,2913
2017-04-30T07:35:07.680Z,2936
2017-04-30T07:36:07.715Z,2970
2017-04-30T07:37:07.730Z,2970
2017-04-30T07:38:07.734Z,2970
2017-04-30T07:39:07.707Z,2964
2017-04-30T07:40:07.743Z,3009
2017-04-30T07:41:07.679Z,2992
2017-04-30T07:42:07.741Z,2986
2017-04-30T07:43:07.693Z,2981
2017-04-30T07:44:07.665Z,2953
2017-04-30T07:45:07.718Z,2981
2017-04-30T07:46:07.757Z,2998
2017-04-30T07:47:07.703Z,3082
2017-04-30T07:48:07.663Z,3105
2017-04-30T07:49:07.734Z,3110
2017-04-30T07:50:07.712Z,3144
2017-04-30T07:51:07.704Z,3144
2017-04-30T07:52:07.681Z,3155
2017-04-30T07:53:07.706Z,3155
2017-04-30T07:54:07.675Z,3155
2017-04-30T07:55:07.716Z,3178
2017-04-30T07:56:07.778Z,3211
2017-04-30T07:57:07.745Z,3251
2017-04-30T07:58:07.713Z,3273
2017-04-30T07:59:07.756Z,3307
2017-04-30T08:00:07.694Z,3279
2017-04-30T08:01:07.770Z,3228
2017-04-30T08:02:07.726Z,3211
2017-04-30T08:03:07.683Z,3189
2017-04-30T08:04:07.759Z,3166
2017-04-30T08:05:07.720Z,3189
2017-04-30T08:06:07.699Z,3189
2017-04-30T08:07:07.726Z,3251
2017-04-30T08:08:07.667Z,3335
2017-04-30T08:09:07.727Z,3408
2017-04-30T08:10:07.725Z,3436
2017-04-30T08:11:07.709Z,3476
2017-04-30T08:12:07.678Z,3487
2017-04-30T08:13:07.665Z,3504
2017-04-30T08:14:07.754Z,3515
2017-04-30T08:15:07.717Z,3526
2017-04-30T08:16:07.699Z,3510
2017-04-30T08:17:07.763Z,3510
2017-04-30T08:18:07.735Z,3504
2017-04-30T08:19:07.694Z,3498
2017-04-30T08:20:07.770Z,3493
2017-04-30T08:21:07.795Z,3526
2017-04-30T08:22:07.704Z,3571
2017-04-30T08:23:07.749Z,3560
2017-04-30T08:24:07.726Z,3538
2017-04-30T08:25:07.772Z,3498
2017-04-30T08:26:07.762Z,3465
2017-04-30T08:27:07.687Z,3425
2017-04-30T08:28:07.696Z,3262
2017-04-30T08:29:07.797Z,3223
2017-04-30T08:30:07.713Z,3116
2017-04-30T08:31:07.761Z,3110
2017-04-30T08:32:07.762Z,3166
2017-04-30T08:33:07.742Z,3256
2017-04-30T08:34:07.771Z,3341
2017-04-30T08:35:07.767Z,3465
2017-04-30T08:36:07.785Z,3600
2017-04-30T08:37:07.761Z,3656
2017-04-30T08:38:07.713Z,3735
2017-04-30T08:39:07.763Z,3774
2017-04-30T08:40:07.734Z,3740
2017-04-30T08:41:07.713Z,3791
2017-04-30T08:42:07.696Z,3768
2017-04-30T08:43:07.758Z,3780
2017-04-30T08:44:07.734Z,3802
2017-04-30T08:45:07.717Z,3853
2017-04-30T08:46:07.861Z,3830
2017-04-30T08:47:07.703Z,3808
2017-04-30T08:48:07.761Z,3774
2017-04-30T08:49:07.761Z,3864
2017-04-30T08:50:07.692Z,3948
2017-04-30T08:51:07.667Z,4005
2017-04-30T08:52:07.687Z,3943
2017-04-30T08:53:07.690Z,4021
2017-04-30T08:55:07.729Z,4106
2017-04-30T08:56:07.714Z,4078
2017-04-30T08:57:07.760Z,4111
2017-04-30T08:58:07.736Z,4111
2017-04-30T08:59:07.754Z,4123
2017-04-30T09:00:07.780Z,4072
2017-04-30T09:01:07.752Z,4106
2017-04-30T09:02:07.776Z,4162
2017-04-30T09:03:07.734Z,4145
2017-04-30T09:04:07.693Z,4134
2017-04-30T09:05:07.792Z,4123
2017-04-30T09:06:07.743Z,4185
2017-04-30T09:07:07.728Z,4286
2017-04-30T09:08:07.811Z,4348
2017-04-30T09:09:07.808Z,4353
2017-04-30T09:10:07.807Z,4410
2017-04-30T09:11:07.807Z,4387
2017-04-30T09:12:07.774Z,4348
2017-04-30T09:13:07.760Z,4331
2017-04-30T09:14:07.763Z,4393
2017-04-30T09:15:07.768Z,4410
2017-04-30T09:16:07.730Z,4455
2017-04-30T09:17:07.690Z,4500
2017-04-30T09:18:07.697Z,4528
2017-04-30T09:19:07.698Z,4471
2017-04-30T09:20:07.755Z,4426
2017-04-30T09:21:07.699Z,4410
2017-04-30T09:22:07.718Z,4381
2017-04-30T09:23:07.758Z,4404
2017-04-30T09:24:07.697Z,4224
2017-04-30T09:25:07.761Z,4291
2017-04-30T09:26:07.670Z,4393
2017-04-30T09:27:07.751Z,4438
2017-04-30T09:28:07.798Z,4336
2017-04-30T09:29:07.733Z,4275
2017-04-30T09:30:07.782Z,4426
2017-04-30T09:31:07.781Z,4477
2017-04-30T09:32:07.726Z,4584
2017-04-30T09:33:07.813Z,4556
2017-04-30T09:34:07.732Z,4522
2017-04-30T09:35:07.821Z,4471
2017-04-30T09:36:07.813Z,4376
2017-04-30T09:37:07.782Z,4280
2017-04-30T09:38:07.767Z,4207
2017-04-30T09:39:07.696Z,4336
2017-04-30T09:40:07.773Z,4342
2017-04-30T09:41:07.794Z,4387
2017-04-30T09:42:07.783Z,4387
2017-04-30T09:43:07.763Z,4303
2017-04-30T09:44:07.751Z,4342
2017-04-30T09:45:07.720Z,4297
2017-04-30T09:46:07.709Z,4556
2017-04-30T09:47:07.831Z,4651
2017-04-30T09:48:07.813Z,4668
2017-04-30T09:49:07.777Z,4561
2017-04-30T09:50:07.792Z,4539
2017-04-30T09:51:07.737Z,4500
2017-04-30T09:52:07.748Z,4404
2017-04-30T09:53:07.770Z,4438
2017-04-30T09:54:07.807Z,4646
2017-04-30T09:55:07.776Z,4668
2017-04-30T09:56:07.837Z,4685
2017-04-30T09:57:07.802Z,4725
2017-04-30T09:58:07.789Z,4837
2017-04-30T09:59:07.750Z,4741
2017-04-30T10:00:07.759Z,4663
2017-04-30T10:01:07.799Z,4618
2017-04-30T10:02:07.841Z,4466
2017-04-30T10:03:07.869Z,4443
2017-04-30T10:04:07.769Z,4449
2017-04-30T10:05:07.813Z,4421
2017-04-30T10:06:07.745Z,4443
2017-04-30T10:07:07.768Z,4612
2017-04-30T10:08:07.719Z,4725
2017-04-30T10:09:07.721Z,4792
2017-04-30T10:10:07.696Z,4871
2017-04-30T10:11:07.726Z,4905
2017-04-30T10:12:07.696Z,4854
2017-04-30T10:13:07.750Z,4933
2017-04-30T10:14:07.703Z,4893
2017-04-30T10:15:07.768Z,4775
2017-04-30T10:16:07.767Z,4854
2017-04-30T10:17:07.774Z,4837
2017-04-30T10:18:07.773Z,4736
2017-04-30T10:19:07.785Z,4775
2017-04-30T10:20:07.790Z,4905
2017-04-30T10:21:07.807Z,5068
2017-04-30T10:22:07.731Z,5017
2017-04-30T10:23:07.722Z,4972
2017-04-30T10:24:07.744Z,5040
2017-04-30T10:25:07.805Z,5028
2017-04-30T10:26:07.801Z,5079
2017-04-30T10:27:07.775Z,4989
2017-04-30T10:28:07.842Z,5175
2017-04-30T10:29:07.854Z,5169
2017-04-30T10:30:07.856Z,5231
2017-04-30T10:31:07.817Z,4921
2017-04-30T10:32:07.779Z,5259
2017-04-30T10:33:07.844Z,5107
2017-04-30T10:34:07.800Z,5130
2017-04-30T10:35:07.801Z,5006
2017-04-30T10:36:07.802Z,5158
2017-04-30T10:37:07.776Z,5124
2017-04-30T10:38:07.848Z,5124
2017-04-30T10:39:07.812Z,5107
2017-04-30T10:40:07.762Z,5118
2017-04-30T10:41:07.860Z,5214
2017-04-30T10:42:07.863Z,5214
2017-04-30T10:43:07.866Z,5349
2017-04-30T10:44:07.787Z,5231
2017-04-30T10:45:07.775Z,5203
2017-04-30T10:46:07.850Z,5315
2017-04-30T10:47:07.825Z,5467
2017-04-30T10:48:07.844Z,5445
2017-04-30T10:49:07.787Z,5439
2017-04-30T10:50:07.824Z,5321
2017-04-30T10:51:07.820Z,3037
2017-04-30T10:52:07.835Z,2233
2017-04-30T10:53:07.861Z,2964
2017-04-30T10:54:07.862Z,5068
2017-04-30T10:55:07.857Z,2255
2017-04-30T10:56:07.784Z,4798
2017-04-30T10:57:07.796Z,3161
2017-04-30T10:58:07.778Z,4888
2017-04-30T10:59:07.782Z,2902
2017-04-30T11:00:07.858Z,2424
2017-04-30T11:01:07.754Z,5878
2017-04-30T11:02:07.820Z,5850
2017-04-30T11:03:07.789Z,5895
2017-04-30T11:04:07.781Z,2323
2017-04-30T11:05:07.859Z,2115
2017-04-30T11:06:07.846Z,2238
2017-04-30T11:07:07.846Z,2767
2017-04-30T11:08:07.832Z,3217
2017-04-30T11:09:07.803Z,3397
2017-04-30T11:10:07.774Z,3363
2017-04-30T11:11:07.842Z,5523
2017-04-30T11:12:07.817Z,2688
2017-04-30T11:13:07.793Z,5535
2017-04-30T11:14:07.787Z,2160
2017-04-30T11:15:07.815Z,2058
2017-04-30T11:16:07.840Z,2745
2017-04-30T11:17:07.794Z,5866
2017-04-30T11:18:07.796Z,5940
2017-04-30T11:19:07.868Z,2345
2017-04-30T11:20:07.840Z,2356
2017-04-30T11:21:07.820Z,2266
2017-04-30T11:22:07.786Z,2250
2017-04-30T11:23:07.881Z,4989
2017-04-30T11:24:07.832Z,4117
2017-04-30T11:25:07.890Z,5630
2017-04-30T11:26:07.832Z,3330
2017-04-30T11:27:07.865Z,2193
2017-04-30T11:28:07.796Z,2323
2017-04-30T11:29:07.831Z,3133
2017-04-30T11:30:07.868Z,4336
2017-04-30T11:31:07.795Z,5799
2017-04-30T11:32:07.830Z,5765
2017-04-30T11:33:07.792Z,3240
2017-04-30T11:34:07.781Z,2171
2017-04-30T11:35:07.849Z,2401
2017-04-30T11:36:07.810Z,5484
2017-04-30T11:37:07.869Z,3549
2017-04-30T11:38:07.810Z,5985
2017-04-30T11:39:07.838Z,3656
2017-04-30T11:40:07.851Z,2463
2017-04-30T11:41:07.879Z,2553
2017-04-30T11:42:07.886Z,5118
2017-04-30T11:43:07.806Z,2705
2017-04-30T11:44:07.849Z,2801
2017-04-30T11:45:07.854Z,2683
2017-04-30T11:46:07.885Z,4038
2017-04-30T11:47:07.789Z,5985
2017-04-30T11:48:07.767Z,5878
2017-04-30T11:49:07.839Z,4190
2017-04-30T11:50:07.808Z,2587
2017-04-30T11:51:07.861Z,2345
2017-04-30T11:52:07.838Z,2655
2017-04-30T11:53:07.768Z,4297
2017-04-30T11:54:07.780Z,5692
2017-04-30T11:55:07.819Z,3600
2017-04-30T11:56:07.754Z,2525
2017-04-30T11:57:07.758Z,2497
2017-04-30T11:58:07.873Z,5388
2017-04-30T11:59:07.803Z,5293
2017-04-30T12:00:07.792Z,5220
2017-04-30T12:01:07.810Z,4882
2017-04-30T12:02:07.825Z,4635
2017-04-30T12:03:07.890Z,2632
2017-04-30T12:04:07.819Z,4050
2017-04-30T12:05:07.837Z,3110
2017-04-30T12:06:07.901Z,2148
2017-04-30T12:07:07.857Z,4595
2017-04-30T12:08:07.855Z,4471
2017-04-30T12:09:07.849Z,4871
2017-04-30T12:10:07.864Z,4893
2017-04-30T12:11:07.868Z,5011
2017-04-30T12:12:07.888Z,5180
2017-04-30T12:13:07.891Z,5231
2017-04-30T12:14:07.890Z,5096
2017-04-30T12:15:07.905Z,5062
2017-04-30T12:16:07.904Z,4792
2017-04-30T12:17:07.813Z,4888
2017-04-30T12:18:07.904Z,5028
2017-04-30T12:19:07.803Z,4674
2017-04-30T12:20:07.902Z,4488
2017-04-30T12:21:07.872Z,4651
2017-04-30T12:22:07.862Z,2261
2017-04-30T12:23:07.850Z,4533
2017-04-30T12:24:07.808Z,4786
2017-04-30T12:25:07.811Z,4151
2017-04-30T12:26:07.899Z,4995
2017-04-30T12:27:07.901Z,4612
2017-04-30T12:28:07.875Z,4702
2017-04-30T12:29:07.836Z,5270
2017-04-30T12:30:07.808Z,5495
2017-04-30T12:31:07.799Z,5568
2017-04-30T12:32:07.794Z,5366
2017-04-30T12:33:07.894Z,5557
2017-04-30T12:34:07.842Z,5670
2017-04-30T12:35:07.822Z,3622
2017-04-30T12:36:07.873Z,4921
2017-04-30T12:37:07.872Z,5956
2017-04-30T12:38:07.839Z,2632
2017-04-30T12:39:07.814Z,2598
2017-04-30T12:40:07.833Z,5861
2017-04-30T12:41:07.863Z,5793
2017-04-30T12:42:07.884Z,3105
2017-04-30T12:43:07.847Z,2728
2017-04-30T12:44:07.854Z,4882
2017-04-30T12:45:07.842Z,5613
2017-04-30T12:46:07.839Z,5422
2017-04-30T12:47:07.824Z,5428
2017-04-30T12:48:07.843Z,5315
2017-04-30T12:49:07.804Z,4488
2017-04-30T12:50:07.857Z,2773
2017-04-30T12:51:07.781Z,5180
2017-04-30T12:52:07.842Z,2491
2017-04-30T12:53:07.868Z,5321
2017-04-30T12:54:07.834Z,5310
2017-04-30T12:55:07.795Z,5225
2017-04-30T12:56:07.842Z,4955
2017-04-30T12:57:07.869Z,4680
2017-04-30T12:58:07.816Z,4449
2017-04-30T12:59:07.909Z,4618
2017-04-30T13:00:07.808Z,4831
2017-04-30T13:01:07.824Z,5079
2017-04-30T13:02:07.860Z,5146
2017-04-30T13:03:07.911Z,4168
2017-04-30T13:04:07.894Z,3993
2017-04-30T13:05:07.905Z,4972
2017-04-30T13:06:07.905Z,4921
2017-04-30T13:07:07.813Z,4921
2017-04-30T13:08:07.862Z,4876
2017-04-30T13:09:07.934Z,4905
2017-04-30T13:10:07.923Z,4708
2017-04-30T13:11:07.889Z,4854
2017-04-30T13:12:07.857Z,4770
2017-04-30T13:13:07.854Z,4713
2017-04-30T13:14:07.938Z,4798
2017-04-30T13:15:07.893Z,4696
2017-04-30T13:16:07.851Z,4685
2017-04-30T13:17:07.905Z,4770
2017-04-30T13:18:07.910Z,4753
2017-04-30T13:19:07.871Z,4809
2017-04-30T13:20:07.916Z,4725
2017-04-30T13:21:07.837Z,4820
2017-04-30T13:22:07.846Z,4736
2017-04-30T13:23:07.872Z,3588
2017-04-30T13:24:07.939Z,4730
2017-04-30T13:25:07.883Z,4753
2017-04-30T13:26:07.845Z,4764
2017-04-30T13:27:07.945Z,4691
2017-04-30T13:28:07.894Z,4843
2017-04-30T13:29:07.922Z,4893
2017-04-30T13:30:07.834Z,4539
2017-04-30T13:31:07.846Z,3723
2017-04-30T13:32:07.868Z,3678
2017-04-30T13:33:07.877Z,4584
2017-04-30T13:34:07.913Z,4770
2017-04-30T13:35:07.945Z,4820
2017-04-30T13:36:07.863Z,4798
2017-04-30T13:37:07.913Z,4798
2017-04-30T13:38:07.833Z,4713
2017-04-30T13:39:07.829Z,4612
2017-04-30T13:40:07.891Z,4674
2017-04-30T13:41:07.873Z,4595
2017-04-30T13:42:07.843Z,4635
2017-04-30T13:43:07.818Z,4573
2017-04-30T13:44:07.828Z,4601
2017-04-30T13:45:07.874Z,4584
2017-04-30T13:46:07.904Z,4545